Menalon — SXCH — position and weather

sailwx.info

Track history (hours):
 
Tides and Currents Weather Stations Pressure Air Temp Water Temp Dewpoint Dewpoint Depression Visibility Wind Speed Wind Dir Waves Ship Positions

Menalon

Last reported at 2015-May-25 09:09 UTC. Time now 2015-May-25 09:35 UTC.
Position N 38°02' E 023°35'.

Length 83 m; draft 3.5 m.

Type: Ship (hazmat cat C). MMSI: 239741000.

Date/timePositionNaut miles runAvg speedWind from/ knotsBaromVisibWave heightAir tempDewpointWater temp
2015-May-25 09:09N 38°02' E 023°35'0 0.0
2015-May-25 08:30N 38°02' E 023°35'0 0.0
2015-May-25 07:33N 38°02' E 023°35'2 1.6
2015-May-25 06:27N 38°00' E 023°34'3 3.7
2015-May-25 05:33N 37°57' E 023°35'0 0.0
2015-May-25 04:33N 37°57' E 023°35'0 0.0
2015-May-25 03:33N 37°57' E 023°35'0 0.0
2015-May-25 02:33N 37°57' E 023°35'0 0.0
2015-May-25 01:33N 37°57' E 023°35'0 0.0
2015-May-25 00:33N 37°57' E 023°35'0 0.0
2015-May-24 23:33N 37°57' E 023°35'0 0.0
2015-May-24 22:33N 37°57' E 023°35'0 0.0
2015-May-24 21:33N 37°57' E 023°35'0 0.0
2015-May-24 20:33N 37°57' E 023°35'0 0.0
2015-May-24 19:33N 37°57' E 023°35'0 0.0
2015-May-24 18:33N 37°57' E 023°35'0 0.0
2015-May-24 17:33N 37°57' E 023°35'0 0.0
2015-May-24 16:33N 37°57' E 023°35'0 0.1
2015-May-24 15:33N 37°57' E 023°35'0 0.0
2015-May-24 14:33N 37°57' E 023°35'0 0.0
2015-May-24 13:33N 37°57' E 023°35'0 0.0
2015-May-24 12:33N 37°57' E 023°35'0 0.0
2015-May-24 11:33N 37°57' E 023°35'0 0.0
2015-May-24 10:33N 37°57' E 023°35'0 0.0
2015-May-24 09:33N 37°57' E 023°35'0 0.0
2015-May-24 08:33N 37°57' E 023°35'0 0.0
2015-May-24 07:33N 37°57' E 023°35'0 0.0
2015-May-24 06:33N 37°57' E 023°35'0 0.0
2015-May-24 05:33N 37°57' E 023°35'0 0.0
2015-May-24 04:33N 37°57' E 023°35'0 0.0
2015-May-24 03:33N 37°57' E 023°35'0 0.0
2015-May-24 02:33N 37°57' E 023°35'0 0.0
2015-May-24 01:33N 37°57' E 023°35'0 0.0
2015-May-24 00:33N 37°57' E 023°35'0 0.0
2015-May-23 23:33N 37°57' E 023°35'0 0.0
2015-May-23 22:33N 37°57' E 023°35'0 0.0
2015-May-23 21:33N 37°57' E 023°35'0 0.0
2015-May-23 20:33N 37°57' E 023°35'0 0.0
2015-May-23 19:33N 37°57' E 023°35'0 0.0
2015-May-23 18:33N 37°57' E 023°35'0 0.1
2015-May-23 17:33N 37°57' E 023°35'0 0.1
2015-May-23 16:33N 37°57' E 023°34'0 0.0
2015-May-23 15:33N 37°57' E 023°34'0 0.0
2015-May-23 14:33N 37°57' E 023°34'0 0.0
2015-May-23 13:33N 37°57' E 023°34'0 0.0
2015-May-23 12:33N 37°57' E 023°35'0 0.0
2015-May-23 11:33N 37°57' E 023°35'0 0.0
2015-May-23 10:33N 37°57' E 023°35'0 0.0
2015-May-23 09:33N 37°57' E 023°35'0 0.0
2015-May-23 08:33N 37°57' E 023°35'0 0.0
2015-May-23 07:33N 37°57' E 023°35'0 0.1
2015-May-23 06:33N 37°57' E 023°35'0 0.0
2015-May-23 05:33N 37°57' E 023°35'0 0.0
2015-May-23 04:33N 37°57' E 023°35'0 0.0
2015-May-23 03:33N 37°57' E 023°35'0 0.0
2015-May-23 02:33N 37°57' E 023°35'0 0.0
2015-May-23 01:33N 37°57' E 023°35'0 0.0
2015-May-23 00:33N 37°57' E 023°35'0 0.0
2015-May-22 23:33N 37°57' E 023°35'0 0.0
2015-May-22 22:33N 37°57' E 023°35'0 0.0
2015-May-22 21:33N 37°57' E 023°35'6 6.2
2015-May-22 20:33N 37°52' E 023°32'0 0.5
2015-May-22 19:33N 37°51' E 023°32'0 0.0
2015-May-22 18:33N 37°51' E 023°32'1 0.6
2015-May-22 17:33N 37°51' E 023°31'0 0.1
2015-May-22 16:33N 37°51' E 023°31'0 0.0
2015-May-22 15:33N 37°51' E 023°31'0 0.1
2015-May-22 14:33N 37°50' E 023°31'0 0.0
2015-May-22 13:33N 37°50' E 023°31'0 0.0
2015-May-22 12:33N 37°50' E 023°31'0 0.0
2015-May-22 11:33N 37°50' E 023°31'0 0.0
2015-May-22 10:33N 37°50' E 023°31'7 6.8
2015-May-22 09:33N 37°57' E 023°35'1 0.8
2015-May-22 08:33N 37°57' E 023°34'0 0.0
2015-May-22 07:33N 37°57' E 023°35'0 0.0
2015-May-22 06:33N 37°57' E 023°35'0 0.0
2015-May-22 05:33N 37°57' E 023°35'0 0.0
2015-May-22 04:33N 37°57' E 023°34'1 0.6
2015-May-22 03:33N 37°57' E 023°35'0 0.2
2015-May-22 02:33N 37°57' E 023°35'0 0.0
2015-May-22 01:33N 37°57' E 023°35'1 0.5
2015-May-22 00:33N 37°57' E 023°35'0 0.2
2015-May-21 23:33N 37°57' E 023°35'0 0.0
2015-May-21 22:33N 37°57' E 023°35'0 0.0
2015-May-21 21:33N 37°57' E 023°35'0 0.0
2015-May-21 20:33N 37°57' E 023°35'0 0.0
2015-May-21 19:33N 37°57' E 023°34'0 0.0
2015-May-21 18:33N 37°57' E 023°34'0 0.0
2015-May-21 17:33N 37°57' E 023°34'0 0.0
2015-May-21 16:33N 37°57' E 023°34'1 1.0
2015-May-21 15:33N 37°57' E 023°36'0 0.0
2015-May-21 14:13N 37°57' E 023°36'0 0.0
2015-May-21 13:32N 37°57' E 023°36'0 0.0
2015-May-21 12:33N 37°57' E 023°36'0 0.4
2015-May-21 11:28N 37°57' E 023°36'5 5.1
2015-May-21 10:33N 37°53' E 023°33'0 0.0
2015-May-21 09:33N 37°53' E 023°33'1 1.2
2015-May-21 08:33N 37°52' E 023°34'1 0.7
2015-May-21 07:33N 37°52' E 023°33'0 0.1
2015-May-21 06:33N 37°52' E 023°33'0 0.1
2015-May-21 05:33N 37°52' E 023°33'0 0.0
2015-May-21 04:33N 37°52' E 023°33'0 0.1
2015-May-21 03:33N 37°52' E 023°33'5 4.8
2015-May-21 02:33N 37°57' E 023°35'1 0.6
2015-May-21 01:33N 37°57' E 023°35'0 0.0
2015-May-21 00:33N 37°57' E 023°35'0 0.0
2015-May-20 23:33N 37°57' E 023°35'0 0.0
2015-May-20 22:33N 37°57' E 023°35'0 0.0
2015-May-20 21:33N 37°57' E 023°35'0 0.0
2015-May-20 20:33N 37°57' E 023°35'0 0.0
2015-May-20 19:33N 37°57' E 023°35'0 0.0
2015-May-20 18:33N 37°57' E 023°35'0 0.0
2015-May-20 17:33N 37°57' E 023°35'1 0.7
2015-May-20 16:33N 37°57' E 023°34'0 0.0
2015-May-20 15:34N 37°57' E 023°34'0 0.0
2015-May-20 14:33N 37°57' E 023°34'0 0.0
2015-May-20 13:33N 37°57' E 023°34'0 0.1
2015-May-20 12:33N 37°57' E 023°34'0 0.0
2015-May-20 11:33N 37°57' E 023°34'0 0.0
2015-May-20 10:33N 37°57' E 023°34'0 0.0
2015-May-20 09:33N 37°57' E 023°34'0 0.0
2015-May-20 08:33N 37°57' E 023°34'0 0.0
2015-May-20 07:33N 37°57' E 023°34'0 0.0
2015-May-20 06:33N 37°57' E 023°34'0 0.0
2015-May-20 05:33N 37°57' E 023°34'0 0.0
2015-May-20 04:33N 37°57' E 023°34'0 0.0
2015-May-20 03:33N 37°57' E 023°34'0 0.0
2015-May-20 02:33N 37°57' E 023°34'0 0.0
2015-May-20 01:33N 37°57' E 023°34'0 0.0
2015-May-20 00:33N 37°57' E 023°34'0 0.0
2015-May-19 23:33N 37°57' E 023°34'0 0.0
2015-May-19 22:33N 37°57' E 023°34'0 0.0
2015-May-19 21:33N 37°57' E 023°34'0 0.0
2015-May-19 20:33N 37°57' E 023°34'0 0.0
2015-May-19 19:33N 37°57' E 023°34'0 0.0
2015-May-19 18:33N 37°57' E 023°34'0 0.0
2015-May-19 17:33N 37°57' E 023°34'0 0.0
2015-May-19 16:33N 37°57' E 023°34'0 0.0
2015-May-19 15:33N 37°57' E 023°34'0 0.0
2015-May-19 14:33N 37°57' E 023°34'0 0.0
2015-May-19 13:33N 37°57' E 023°34'4 4.5
2015-May-19 12:33N 37°53' E 023°33'0 0.1
2015-May-19 11:33N 37°53' E 023°33'0 0.1
2015-May-19 10:33N 37°53' E 023°33'0 0.0
2015-May-19 09:33N 37°53' E 023°33'1 1.4
2015-May-19 08:33N 37°54' E 023°34'7 6.9
2015-May-19 07:33N 38°01' E 023°32'1 0.6
2015-May-19 06:32N 38°02' E 023°32'0 0.0
2015-May-19 05:29N 38°02' E 023°32'0 0.0
2015-May-19 04:32N 38°02' E 023°32'0 0.0
2015-May-19 03:33N 38°02' E 023°32'0 0.0
2015-May-19 02:33N 38°02' E 023°32'3 2.6
2015-May-19 01:33N 38°01' E 023°29'8 7.4
2015-May-19 00:31N 37°54' E 023°23'7 7.1
2015-May-18 23:33N 37°54' E 023°32'5 4.6
2015-May-18 22:33N 37°57' E 023°35'0 0.1
2015-May-18 21:33N 37°57' E 023°35'0 0.1
2015-May-18 20:33N 37°57' E 023°35'0 0.0
2015-May-18 19:33N 37°57' E 023°35'1 1.4
2015-May-18 18:33N 37°56' E 023°35'8 8.3
2015-May-18 17:33N 37°52' E 023°26'9 8.9
2015-May-18 16:31N 37°53' E 023°14'7 7.4
2015-May-18 15:31N 37°55' E 023°05'0 0.0
2015-May-18 10:33N 37°55' E 023°05'0 0.0
2015-May-18 09:15N 37°55' E 023°05'0 0.0
2015-May-18 07:21N 37°55' E 023°05'0 0.0
2015-May-18 02:19N 37°55' E 023°05'0 0.0
2015-May-18 01:31N 37°55' E 023°05'0 0.2
2015-May-18 00:14N 37°55' E 023°05'1 0.8
2015-May-17 23:18N 37°55' E 023°04'0 0.0
2015-May-17 22:15N 37°55' E 023°04'0 0.0
2015-May-17 21:32N 37°55' E 023°04'0 0.0
2015-May-17 20:30N 37°55' E 023°04'0 0.0
2015-May-17 19:25N 37°55' E 023°04'4 4.3
2015-May-17 18:32N 37°55' E 023°09'1010.0
2015-May-17 17:33N 37°57' E 023°21'8 8.3
2015-May-17 16:33N 38°02' E 023°30'1 0.6
2015-May-17 15:33N 38°02' E 023°30'0 0.0
2015-May-17 14:33N 38°02' E 023°30'0 0.0
2015-May-17 13:33N 38°02' E 023°30'0 0.0
2015-May-17 12:33N 38°02' E 023°30'0 0.0
2015-May-17 11:33N 38°02' E 023°30'0 0.0
2015-May-17 10:33N 38°02' E 023°30'0 0.0
2015-May-17 09:33N 38°02' E 023°30'0 0.0
2015-May-17 08:33N 38°02' E 023°30'0 0.4
2015-May-17 07:33N 38°02' E 023°30'4 2.1
2015-May-17 05:33N 38°02' E 023°36'0 0.0
2015-May-17 04:30N 38°02' E 023°36'0 0.0
2015-May-17 03:32N 38°02' E 023°36'0 0.0
2015-May-17 02:33N 38°02' E 023°36'0 0.0
2015-May-17 01:33N 38°02' E 023°36'0 0.0
2015-May-17 00:28N 38°02' E 023°36'0 0.0
2015-May-16 23:33N 38°02' E 023°36'0 0.0
2015-May-16 22:33N 38°02' E 023°36'0 0.0
2015-May-16 21:33N 38°02' E 023°36'0 0.0
2015-May-16 20:33N 38°02' E 023°36'0 0.0
2015-May-16 19:29N 38°02' E 023°36'0 0.0
2015-May-16 18:33N 38°02' E 023°36'0 0.0
2015-May-16 17:33N 38°02' E 023°36'0 0.0
2015-May-16 16:32N 38°02' E 023°36'0 0.0
2015-May-16 15:33N 38°02' E 023°36'0 0.0
2015-May-16 14:33N 38°02' E 023°36'0 0.0
2015-May-16 13:33N 38°02' E 023°36'0 0.0
2015-May-16 12:32N 38°02' E 023°36'0 0.0
2015-May-16 11:33N 38°02' E 023°36'0 0.0
2015-May-16 10:33N 38°02' E 023°36'0 0.0
2015-May-16 09:16N 38°02' E 023°36'0 0.0
2015-May-16 08:26N 38°02' E 023°36'0 0.0
2015-May-16 07:33N 38°02' E 023°36'0 0.0
2015-May-16 06:33N 38°02' E 023°36'0 0.0
2015-May-16 05:18N 38°02' E 023°36'0 0.0
2015-May-16 04:33N 38°02' E 023°36'0 0.0
2015-May-16 03:33N 38°02' E 023°36'0 0.0
2015-May-16 02:33N 38°02' E 023°36'0 0.0
2015-May-16 01:33N 38°02' E 023°36'0 0.0
2015-May-16 00:33N 38°02' E 023°36'0 0.0
2015-May-15 23:33N 38°02' E 023°36'0 0.0
2015-May-15 22:33N 38°02' E 023°36'0 0.0
2015-May-15 21:30N 38°02' E 023°36'0 0.0
2015-May-15 20:33N 38°02' E 023°36'0 0.0
2015-May-15 19:33N 38°02' E 023°36'0 0.0
2015-May-15 18:31N 38°02' E 023°36'0 0.0
2015-May-15 17:33N 38°02' E 023°36'0 0.0
2015-May-15 16:30N 38°02' E 023°36'0 0.0
2015-May-15 15:33N 38°02' E 023°36'0 0.0
2015-May-15 14:33N 38°02' E 023°36'0 0.0
2015-May-15 13:32N 38°02' E 023°36'0 0.0
2015-May-15 12:33N 38°02' E 023°36'0 0.0
2015-May-15 11:33N 38°02' E 023°36'0 0.0
2015-May-15 09:20N 38°02' E 023°36'1 1.6
2015-May-15 08:33N 38°01' E 023°34'  
Track history (hours):
 
Tides and Currents Weather Stations Pressure Air Temp Water Temp Dewpoint Dewpoint Depression Visibility Wind Speed Wind Dir Waves Ship Positions

Menalon

Last reported at 2015-May-25 09:09 UTC. Time now 2015-May-25 09:35 UTC.
Position N 38°02' E 023°35'.

Length 83 m; draft 3.5 m.

Type: Ship (hazmat cat C). MMSI: 239741000.

Date/timePositionNaut miles runAvg speedWind from/ knotsBaromVisibWave heightAir tempDewpointWater temp
2015-May-25 09:09N 38°02' E 023°35'0 0.0
2015-May-25 08:30N 38°02' E 023°35'0 0.0
2015-May-25 07:33N 38°02' E 023°35'2 1.6
2015-May-25 06:27N 38°00' E 023°34'3 3.7
2015-May-25 05:33N 37°57' E 023°35'0 0.0
2015-May-25 04:33N 37°57' E 023°35'0 0.0
2015-May-25 03:33N 37°57' E 023°35'0 0.0
2015-May-25 02:33N 37°57' E 023°35'0 0.0
2015-May-25 01:33N 37°57' E 023°35'0 0.0
2015-May-25 00:33N 37°57' E 023°35'0 0.0
2015-May-24 23:33N 37°57' E 023°35'0 0.0
2015-May-24 22:33N 37°57' E 023°35'0 0.0
2015-May-24 21:33N 37°57' E 023°35'0 0.0
2015-May-24 20:33N 37°57' E 023°35'0 0.0
2015-May-24 19:33N 37°57' E 023°35'0 0.0
2015-May-24 18:33N 37°57' E 023°35'0 0.0
2015-May-24 17:33N 37°57' E 023°35'0 0.0
2015-May-24 16:33N 37°57' E 023°35'0 0.1
2015-May-24 15:33N 37°57' E 023°35'0 0.0
2015-May-24 14:33N 37°57' E 023°35'0 0.0
2015-May-24 13:33N 37°57' E 023°35'0 0.0
2015-May-24 12:33N 37°57' E 023°35'0 0.0
2015-May-24 11:33N 37°57' E 023°35'0 0.0
2015-May-24 10:33N 37°57' E 023°35'0 0.0
2015-May-24 09:33N 37°57' E 023°35'0 0.0
2015-May-24 08:33N 37°57' E 023°35'0 0.0
2015-May-24 07:33N 37°57' E 023°35'0 0.0
2015-May-24 06:33N 37°57' E 023°35'0 0.0
2015-May-24 05:33N 37°57' E 023°35'0 0.0
2015-May-24 04:33N 37°57' E 023°35'0 0.0
2015-May-24 03:33N 37°57' E 023°35'0 0.0
2015-May-24 02:33N 37°57' E 023°35'0 0.0
2015-May-24 01:33N 37°57' E 023°35'0 0.0
2015-May-24 00:33N 37°57' E 023°35'0 0.0
2015-May-23 23:33N 37°57' E 023°35'0 0.0
2015-May-23 22:33N 37°57' E 023°35'0 0.0
2015-May-23 21:33N 37°57' E 023°35'0 0.0
2015-May-23 20:33N 37°57' E 023°35'0 0.0
2015-May-23 19:33N 37°57' E 023°35'0 0.0
2015-May-23 18:33N 37°57' E 023°35'0 0.1
2015-May-23 17:33N 37°57' E 023°35'0 0.1
2015-May-23 16:33N 37°57' E 023°34'0 0.0
2015-May-23 15:33N 37°57' E 023°34'0 0.0
2015-May-23 14:33N 37°57' E 023°34'0 0.0
2015-May-23 13:33N 37°57' E 023°34'0 0.0
2015-May-23 12:33N 37°57' E 023°35'0 0.0
2015-May-23 11:33N 37°57' E 023°35'0 0.0
2015-May-23 10:33N 37°57' E 023°35'0 0.0
2015-May-23 09:33N 37°57' E 023°35'0 0.0
2015-May-23 08:33N 37°57' E 023°35'0 0.0
2015-May-23 07:33N 37°57' E 023°35'0 0.1
2015-May-23 06:33N 37°57' E 023°35'0 0.0
2015-May-23 05:33N 37°57' E 023°35'0 0.0
2015-May-23 04:33N 37°57' E 023°35'0 0.0
2015-May-23 03:33N 37°57' E 023°35'0 0.0
2015-May-23 02:33N 37°57' E 023°35'0 0.0
2015-May-23 01:33N 37°57' E 023°35'0 0.0
2015-May-23 00:33N 37°57' E 023°35'0 0.0
2015-May-22 23:33N 37°57' E 023°35'0 0.0
2015-May-22 22:33N 37°57' E 023°35'0 0.0
2015-May-22 21:33N 37°57' E 023°35'6 6.2
2015-May-22 20:33N 37°52' E 023°32'0 0.5
2015-May-22 19:33N 37°51' E 023°32'0 0.0
2015-May-22 18:33N 37°51' E 023°32'1 0.6
2015-May-22 17:33N 37°51' E 023°31'0 0.1
2015-May-22 16:33N 37°51' E 023°31'0 0.0
2015-May-22 15:33N 37°51' E 023°31'0 0.1
2015-May-22 14:33N 37°50' E 023°31'0 0.0
2015-May-22 13:33N 37°50' E 023°31'0 0.0
2015-May-22 12:33N 37°50' E 023°31'0 0.0
2015-May-22 11:33N 37°50' E 023°31'0 0.0
2015-May-22 10:33N 37°50' E 023°31'7 6.8
2015-May-22 09:33N 37°57' E 023°35'1 0.8
2015-May-22 08:33N 37°57' E 023°34'0 0.0
2015-May-22 07:33N 37°57' E 023°35'0 0.0
2015-May-22 06:33N 37°57' E 023°35'0 0.0
2015-May-22 05:33N 37°57' E 023°35'0 0.0
2015-May-22 04:33N 37°57' E 023°34'1 0.6
2015-May-22 03:33N 37°57' E 023°35'0 0.2
2015-May-22 02:33N 37°57' E 023°35'0 0.0
2015-May-22 01:33N 37°57' E 023°35'1 0.5
2015-May-22 00:33N 37°57' E 023°35'0 0.2
2015-May-21 23:33N 37°57' E 023°35'0 0.0
2015-May-21 22:33N 37°57' E 023°35'0 0.0
2015-May-21 21:33N 37°57' E 023°35'0 0.0
2015-May-21 20:33N 37°57' E 023°35'0 0.0
2015-May-21 19:33N 37°57' E 023°34'0 0.0
2015-May-21 18:33N 37°57' E 023°34'0 0.0
2015-May-21 17:33N 37°57' E 023°34'0 0.0
2015-May-21 16:33N 37°57' E 023°34'1 1.0
2015-May-21 15:33N 37°57' E 023°36'0 0.0
2015-May-21 14:13N 37°57' E 023°36'0 0.0
2015-May-21 13:32N 37°57' E 023°36'0 0.0
2015-May-21 12:33N 37°57' E 023°36'0 0.4
2015-May-21 11:28N 37°57' E 023°36'5 5.1
2015-May-21 10:33N 37°53' E 023°33'0 0.0
2015-May-21 09:33N 37°53' E 023°33'1 1.2
2015-May-21 08:33N 37°52' E 023°34'1 0.7
2015-May-21 07:33N 37°52' E 023°33'0 0.1
2015-May-21 06:33N 37°52' E 023°33'0 0.1
2015-May-21 05:33N 37°52' E 023°33'0 0.0
2015-May-21 04:33N 37°52' E 023°33'0 0.1
2015-May-21 03:33N 37°52' E 023°33'5 4.8
2015-May-21 02:33N 37°57' E 023°35'1 0.6
2015-May-21 01:33N 37°57' E 023°35'0 0.0
2015-May-21 00:33N 37°57' E 023°35'0 0.0
2015-May-20 23:33N 37°57' E 023°35'0 0.0
2015-May-20 22:33N 37°57' E 023°35'0 0.0
2015-May-20 21:33N 37°57' E 023°35'0 0.0
2015-May-20 20:33N 37°57' E 023°35'0 0.0
2015-May-20 19:33N 37°57' E 023°35'0 0.0
2015-May-20 18:33N 37°57' E 023°35'0 0.0
2015-May-20 17:33N 37°57' E 023°35'1 0.7
2015-May-20 16:33N 37°57' E 023°34'0 0.0
2015-May-20 15:34N 37°57' E 023°34'0 0.0
2015-May-20 14:33N 37°57' E 023°34'0 0.0
2015-May-20 13:33N 37°57' E 023°34'0 0.1
2015-May-20 12:33N 37°57' E 023°34'0 0.0
2015-May-20 11:33N 37°57' E 023°34'0 0.0
2015-May-20 10:33N 37°57' E 023°34'0 0.0
2015-May-20 09:33N 37°57' E 023°34'0 0.0
2015-May-20 08:33N 37°57' E 023°34'0 0.0
2015-May-20 07:33N 37°57' E 023°34'0 0.0
2015-May-20 06:33N 37°57' E 023°34'0 0.0
2015-May-20 05:33N 37°57' E 023°34'0 0.0
2015-May-20 04:33N 37°57' E 023°34'0 0.0
2015-May-20 03:33N 37°57' E 023°34'0 0.0
2015-May-20 02:33N 37°57' E 023°34'0 0.0
2015-May-20 01:33N 37°57' E 023°34'0 0.0
2015-May-20 00:33N 37°57' E 023°34'0 0.0
2015-May-19 23:33N 37°57' E 023°34'0 0.0
2015-May-19 22:33N 37°57' E 023°34'0 0.0
2015-May-19 21:33N 37°57' E 023°34'0 0.0
2015-May-19 20:33N 37°57' E 023°34'0 0.0
2015-May-19 19:33N 37°57' E 023°34'0 0.0
2015-May-19 18:33N 37°57' E 023°34'0 0.0
2015-May-19 17:33N 37°57' E 023°34'0 0.0
2015-May-19 16:33N 37°57' E 023°34'0 0.0
2015-May-19 15:33N 37°57' E 023°34'0 0.0
2015-May-19 14:33N 37°57' E 023°34'0 0.0
2015-May-19 13:33N 37°57' E 023°34'4 4.5
2015-May-19 12:33N 37°53' E 023°33'0 0.1
2015-May-19 11:33N 37°53' E 023°33'0 0.1
2015-May-19 10:33N 37°53' E 023°33'0 0.0
2015-May-19 09:33N 37°53' E 023°33'1 1.4
2015-May-19 08:33N 37°54' E 023°34'7 6.9
2015-May-19 07:33N 38°01' E 023°32'1 0.6
2015-May-19 06:32N 38°02' E 023°32'0 0.0
2015-May-19 05:29N 38°02' E 023°32'0 0.0
2015-May-19 04:32N 38°02' E 023°32'0 0.0
2015-May-19 03:33N 38°02' E 023°32'0 0.0
2015-May-19 02:33N 38°02' E 023°32'3 2.6
2015-May-19 01:33N 38°01' E 023°29'8 7.4
2015-May-19 00:31N 37°54' E 023°23'7 7.1
2015-May-18 23:33N 37°54' E 023°32'5 4.6
2015-May-18 22:33N 37°57' E 023°35'0 0.1
2015-May-18 21:33N 37°57' E 023°35'0 0.1
2015-May-18 20:33N 37°57' E 023°35'0 0.0
2015-May-18 19:33N 37°57' E 023°35'1 1.4
2015-May-18 18:33N 37°56' E 023°35'8 8.3
2015-May-18 17:33N 37°52' E 023°26'9 8.9
2015-May-18 16:31N 37°53' E 023°14'7 7.4
2015-May-18 15:31N 37°55' E 023°05'0 0.0
2015-May-18 10:33N 37°55' E 023°05'0 0.0
2015-May-18 09:15N 37°55' E 023°05'0 0.0
2015-May-18 07:21N 37°55' E 023°05'0 0.0
2015-May-18 02:19N 37°55' E 023°05'0 0.0
2015-May-18 01:31N 37°55' E 023°05'0 0.2
2015-May-18 00:14N 37°55' E 023°05'1 0.8
2015-May-17 23:18N 37°55' E 023°04'0 0.0
2015-May-17 22:15N 37°55' E 023°04'0 0.0
2015-May-17 21:32N 37°55' E 023°04'0 0.0
2015-May-17 20:30N 37°55' E 023°04'0 0.0
2015-May-17 19:25N 37°55' E 023°04'4 4.3
2015-May-17 18:32N 37°55' E 023°09'1010.0
2015-May-17 17:33N 37°57' E 023°21'8 8.3
2015-May-17 16:33N 38°02' E 023°30'1 0.6
2015-May-17 15:33N 38°02' E 023°30'0 0.0
2015-May-17 14:33N 38°02' E 023°30'0 0.0
2015-May-17 13:33N 38°02' E 023°30'0 0.0
2015-May-17 12:33N 38°02' E 023°30'0 0.0
2015-May-17 11:33N 38°02' E 023°30'0 0.0
2015-May-17 10:33N 38°02' E 023°30'0 0.0
2015-May-17 09:33N 38°02' E 023°30'0 0.0
2015-May-17 08:33N 38°02' E 023°30'0 0.4
2015-May-17 07:33N 38°02' E 023°30'4 2.1
2015-May-17 05:33N 38°02' E 023°36'0 0.0
2015-May-17 04:30N 38°02' E 023°36'0 0.0
2015-May-17 03:32N 38°02' E 023°36'0 0.0
2015-May-17 02:33N 38°02' E 023°36'0 0.0
2015-May-17 01:33N 38°02' E 023°36'0 0.0
2015-May-17 00:28N 38°02' E 023°36'0 0.0
2015-May-16 23:33N 38°02' E 023°36'0 0.0
2015-May-16 22:33N 38°02' E 023°36'0 0.0
2015-May-16 21:33N 38°02' E 023°36'0 0.0
2015-May-16 20:33N 38°02' E 023°36'0 0.0
2015-May-16 19:29N 38°02' E 023°36'0 0.0
2015-May-16 18:33N 38°02' E 023°36'0 0.0
2015-May-16 17:33N 38°02' E 023°36'0 0.0
2015-May-16 16:32N 38°02' E 023°36'0 0.0
2015-May-16 15:33N 38°02' E 023°36'0 0.0
2015-May-16 14:33N 38°02' E 023°36'0 0.0
2015-May-16 13:33N 38°02' E 023°36'0 0.0
2015-May-16 12:32N 38°02' E 023°36'0 0.0
2015-May-16 11:33N 38°02' E 023°36'0 0.0
2015-May-16 10:33N 38°02' E 023°36'0 0.0
2015-May-16 09:16N 38°02' E 023°36'0 0.0
2015-May-16 08:26N 38°02' E 023°36'0 0.0
2015-May-16 07:33N 38°02' E 023°36'0 0.0
2015-May-16 06:33N 38°02' E 023°36'0 0.0
2015-May-16 05:18N 38°02' E 023°36'0 0.0
2015-May-16 04:33N 38°02' E 023°36'0 0.0
2015-May-16 03:33N 38°02' E 023°36'0 0.0
2015-May-16 02:33N 38°02' E 023°36'0 0.0
2015-May-16 01:33N 38°02' E 023°36'0 0.0
2015-May-16 00:33N 38°02' E 023°36'0 0.0
2015-May-15 23:33N 38°02' E 023°36'0 0.0
2015-May-15 22:33N 38°02' E 023°36'0 0.0
2015-May-15 21:30N 38°02' E 023°36'0 0.0
2015-May-15 20:33N 38°02' E 023°36'0 0.0
2015-May-15 19:33N 38°02' E 023°36'0 0.0
2015-May-15 18:31N 38°02' E 023°36'0 0.0
2015-May-15 17:33N 38°02' E 023°36'0 0.0
2015-May-15 16:30N 38°02' E 023°36'0 0.0
2015-May-15 15:33N 38°02' E 023°36'0 0.0
2015-May-15 14:33N 38°02' E 023°36'0 0.0
2015-May-15 13:32N 38°02' E 023°36'0 0.0
2015-May-15 12:33N 38°02' E 023°36'0 0.0
2015-May-15 11:33N 38°02' E 023°36'0 0.0
2015-May-15 09:20N 38°02' E 023°36'1 1.6
2015-May-15 08:33N 38°01' E 023°34'  

Dump ship's entire track history